Time;durP1;ratioP1;P1;durP2;ratioP2;P2;SDS_P1;SDS_P2;PMS_P1;PMS_P2;Temp;Humidity;BMP_temperature;BMP_pressure;BME280_temperature;BME280_humidity;BME280_pressure;Samples;Min_cycle;Max_cycle;Signal;HPM_P1;HPM_P2
2023/09/29 00:00:56;;;;;;;11.40;7.30;;;;;;;;;;5035527;28;20916;-86
2023/09/29 00:03:22;;;;;;;9.10;6.10;;;;;;;;;;5035512;28;20410;-85
2023/09/29 00:05:49;;;;;;;10.30;7.37;;;;;;;;;;5017513;28;20450;-86
2023/09/29 00:08:22;;;;;;;8.03;7.00;;;;;;;;;;5035477;28;20416;-84
2023/09/29 00:10:49;;;;;;;11.10;6.60;;;;;;;;;;5035397;28;20549;-84
2023/09/29 00:13:16;;;;;;;7.47;6.77;;;;;;;;;;5035338;28;20963;-85
2023/09/29 00:15:42;;;;;;;10.30;7.03;;;;;;;;;;5035019;28;20487;-84
2023/09/29 00:18:08;;;;;;;9.20;7.67;;;;;;;;;;5035261;28;20401;-84
2023/09/29 00:20:35;;;;;;;8.03;7.17;;;;;;;;;;5034968;28;20763;-85
2023/09/29 00:23:01;;;;;;;9.53;7.87;;;;;;;;;;5035095;28;20513;-86
2023/09/29 00:25:27;;;;;;;11.20;8.50;;;;;;;;;;5034561;28;20413;-86
2023/09/29 00:27:53;;;;;;;8.73;7.50;;;;;;;;;;5035106;28;20542;-86
2023/09/29 00:30:20;;;;;;;11.23;8.63;;;;;;;;;;5033871;28;20548;-86
2023/09/29 00:32:52;;;;;;;9.47;8.50;;;;;;;;;;5035055;28;20406;-86
2023/09/29 00:35:28;;;;;;;9.20;8.00;;;;;;;;;;5015526;28;20952;-85
2023/09/29 00:38:00;;;;;;;8.57;7.43;;;;;;;;;;5034979;28;20892;-86
2023/09/29 00:40:26;;;;;;;11.57;9.10;;;;;;;;;;5034997;28;20423;-85
2023/09/29 00:42:53;;;;;;;9.63;8.73;;;;;;;;;;5034813;28;20414;-86
2023/09/29 00:45:22;;;;;;;11.60;7.80;;;;;;;;;;5034909;28;20825;-85
2023/09/29 00:47:49;;;;;;;9.40;8.30;;;;;;;;;;5034778;28;20407;-85
2023/09/29 00:50:15;;;;;;;12.43;7.60;;;;;;;;;;5016603;28;20473;-85
2023/09/29 00:52:42;;;;;;;12.33;7.70;;;;;;;;;;5034805;28;20410;-86
2023/09/29 00:55:15;;;;;;;8.00;7.13;;;;;;;;;;5034559;28;20450;-85
2023/09/29 00:57:42;;;;;;;9.27;8.10;;;;;;;;;;5034733;28;20416;-84
2023/09/29 01:02:53;;;;;;;10.40;7.83;;;;;;;;;;5034671;28;20470;-84
2023/09/29 01:05:19;;;;;;;11.60;8.47;;;;;;;;;;5034090;28;20410;-85
2023/09/29 01:07:46;;;;;;;10.43;8.87;;;;;;;;;;5016694;28;20417;-85
2023/09/29 01:10:13;;;;;;;10.70;9.90;;;;;;;;;;5034298;28;20460;-85
2023/09/29 01:12:39;;;;;;;10.13;8.87;;;;;;;;;;5034364;28;20406;-86
2023/09/29 01:15:06;;;;;;;11.90;10.80;;;;;;;;;;5016037;28;20558;-86
2023/09/29 01:17:32;;;;;;;11.30;10.30;;;;;;;;;;5033286;28;20823;-85
2023/09/29 01:19:58;;;;;;;10.47;8.73;;;;;;;;;;5033035;28;20431;-85
2023/09/29 01:22:24;;;;;;;12.20;10.10;;;;;;;;;;5033356;28;20419;-86
2023/09/29 01:24:49;;;;;;;10.20;9.20;;;;;;;;;;5033210;28;20422;-85
2023/09/29 01:27:15;;;;;;;10.60;9.50;;;;;;;;;;5015447;28;20348;-86
2023/09/29 01:29:41;;;;;;;11.33;10.20;;;;;;;;;;5033072;28;20824;-85
2023/09/29 01:32:12;;;;;;;11.03;9.70;;;;;;;;;;5033137;28;20407;-86
2023/09/29 01:34:37;;;;;;;11.40;9.17;;;;;;;;;;5032835;28;20407;-86
2023/09/29 01:37:04;;;;;;;10.27;9.27;;;;;;;;;;5033023;28;20419;-86
2023/09/29 01:39:30;;;;;;;9.67;8.80;;;;;;;;;;5015339;28;20781;-85
2023/09/29 01:41:56;;;;;;;11.10;9.97;;;;;;;;;;5033027;28;20426;-85
2023/09/29 01:44:22;;;;;;;11.57;9.60;;;;;;;;;;5033003;28;20419;-85
2023/09/29 01:46:49;;;;;;;9.90;9.03;;;;;;;;;;5032754;28;20407;-85
2023/09/29 01:49:15;;;;;;;9.57;7.97;;;;;;;;;;5032737;28;20441;-84
2023/09/29 01:51:44;;;;;;;10.20;8.77;;;;;;;;;;5033424;28;20420;-84
2023/09/29 01:54:10;;;;;;;9.63;8.83;;;;;;;;;;5052673;28;20405;-84
2023/09/29 01:56:36;;;;;;;10.03;9.00;;;;;;;;;;5052747;28;20414;-85
2023/09/29 01:59:03;;;;;;;12.00;10.07;;;;;;;;;;5052699;28;20410;-85
2023/09/29 02:01:31;;;;;;;10.37;9.30;;;;;;;;;;5052547;28;20833;-86
2023/09/29 02:03:57;;;;;;;10.73;9.73;;;;;;;;;;5052578;28;20416;-85
2023/09/29 02:06:23;;;;;;;11.80;10.70;;;;;;;;;;5052127;28;20415;-85
2023/09/29 02:08:49;;;;;;;10.33;9.43;;;;;;;;;;5052544;28;20455;-84
2023/09/29 02:11:15;;;;;;;11.03;9.67;;;;;;;;;;5052398;28;20514;-85
2023/09/29 02:13:41;;;;;;;10.90;9.60;;;;;;;;;;5052424;28;20411;-85
2023/09/29 02:16:11;;;;;;;10.80;9.07;;;;;;;;;;4999805;28;1007870;-85
2023/09/29 02:18:37;;;;;;;11.63;9.97;;;;;;;;;;5053246;28;20542;-84
2023/09/29 02:21:06;;;;;;;10.60;9.50;;;;;;;;;;5052754;28;20462;-84
2023/09/29 02:23:33;;;;;;;10.53;9.53;;;;;;;;;;5053062;28;20194;-85
2023/09/29 02:26:00;;;;;;;10.80;9.27;;;;;;;;;;5050637;28;20900;-84
2023/09/29 02:28:30;;;;;;;10.90;9.80;;;;;;;;;;5043174;28;20429;-85
2023/09/29 02:30:57;;;;;;;11.23;10.00;;;;;;;;;;5047630;28;20472;-85
2023/09/29 02:33:24;;;;;;;11.60;10.40;;;;;;;;;;5017577;28;20424;-85
2023/09/29 02:35:50;;;;;;;11.50;10.20;;;;;;;;;;5034889;28;20414;-84
2023/09/29 02:38:16;;;;;;;11.83;10.00;;;;;;;;;;5052826;28;20418;-85
2023/09/29 02:40:42;;;;;;;11.00;10.00;;;;;;;;;;5049949;28;20428;-86
2023/09/29 02:43:08;;;;;;;11.27;8.80;;;;;;;;;;5026676;28;20421;-85
2023/09/29 02:45:35;;;;;;;10.93;9.70;;;;;;;;;;5022666;28;20504;-84
2023/09/29 02:48:02;;;;;;;11.83;10.70;;;;;;;;;;5023304;28;20408;-84
2023/09/29 02:50:28;;;;;;;10.17;9.20;;;;;;;;;;5003344;28;20484;-84
2023/09/29 02:52:54;;;;;;;10.73;9.80;;;;;;;;;;5025239;28;20526;-85
2023/09/29 02:55:22;;;;;;;11.23;10.10;;;;;;;;;;5017793;28;20426;-86
2023/09/29 02:57:48;;;;;;;11.03;9.77;;;;;;;;;;5013089;28;20413;-84
2023/09/29 03:00:23;;;;;;;12.47;11.00;;;;;;;;;;5016536;28;20420;-83
2023/09/29 03:02:51;;;;;;;11.40;10.30;;;;;;;;;;5017056;28;20200;-86
2023/09/29 03:05:17;;;;;;;12.50;11.20;;;;;;;;;;4998939;28;20914;-85
2023/09/29 03:07:43;;;;;;;10.97;10.07;;;;;;;;;;5016956;28;20411;-85
2023/09/29 03:10:13;;;;;;;10.53;9.40;;;;;;;;;;5016870;28;20817;-84
2023/09/29 03:12:39;;;;;;;11.70;10.60;;;;;;;;;;5016911;28;20416;-84
2023/09/29 03:15:09;;;;;;;11.37;10.33;;;;;;;;;;5016661;28;20964;-85
2023/09/29 03:17:36;;;;;;;12.30;11.20;;;;;;;;;;4999567;28;20534;-85
2023/09/29 03:20:08;;;;;;;11.40;10.30;;;;;;;;;;5016471;28;20781;-84
2023/09/29 03:22:37;;;;;;;14.07;10.60;;;;;;;;;;5016826;28;20766;-84
2023/09/29 03:25:03;;;;;;;13.67;10.93;;;;;;;;;;4999055;28;20783;-84
2023/09/29 03:27:29;;;;;;;15.93;12.77;;;;;;;;;;5016569;28;20420;-87
2023/09/29 03:29:55;;;;;;;11.50;10.27;;;;;;;;;;4998861;28;20962;-86
2023/09/29 03:32:21;;;;;;;12.00;10.80;;;;;;;;;;5016590;28;20423;-85
2023/09/29 03:34:48;;;;;;;12.20;10.17;;;;;;;;;;4998557;28;20233;-85
2023/09/29 03:37:14;;;;;;;14.43;10.43;;;;;;;;;;5016426;28;20406;-85
2023/09/29 03:39:40;;;;;;;11.00;10.00;;;;;;;;;;5016360;28;20977;-85
2023/09/29 03:42:06;;;;;;;13.20;10.67;;;;;;;;;;4998630;28;20915;-86
2023/09/29 03:44:33;;;;;;;10.73;9.73;;;;;;;;;;5016334;28;20420;-85
2023/09/29 03:47:00;;;;;;;12.23;11.03;;;;;;;;;;5016262;28;20265;-86
2023/09/29 03:49:26;;;;;;;10.30;9.33;;;;;;;;;;5015707;28;20445;-86
2023/09/29 03:51:52;;;;;;;12.77;10.30;;;;;;;;;;4998580;28;20433;-85
2023/09/29 03:54:18;;;;;;;13.40;10.47;;;;;;;;;;5016033;28;20409;-85
2023/09/29 03:56:45;;;;;;;12.50;11.20;;;;;;;;;;4998545;28;20530;-85
2023/09/29 03:59:11;;;;;;;12.90;10.23;;;;;;;;;;5016057;28;20421;-85
2023/09/29 04:01:37;;;;;;;13.23;10.90;;;;;;;;;;5016067;28;20416;-86
2023/09/29 04:04:03;;;;;;;11.67;10.57;;;;;;;;;;5016060;28;20418;-89
2023/09/29 04:06:29;;;;;;;13.20;12.00;;;;;;;;;;5015685;28;20419;-85
2023/09/29 04:08:55;;;;;;;13.90;12.00;;;;;;;;;;4998215;28;20436;-85
2023/09/29 04:11:22;;;;;;;13.83;12.33;;;;;;;;;;5015775;28;20466;-84
2023/09/29 04:13:48;;;;;;;13.33;12.10;;;;;;;;;;5015787;28;20496;-84
2023/09/29 04:16:14;;;;;;;12.80;11.50;;;;;;;;;;5015512;28;20580;-84
2023/09/29 04:18:40;;;;;;;12.60;11.60;;;;;;;;;;5015682;28;21010;-86
2023/09/29 04:21:15;;;;;;;12.40;11.10;;;;;;;;;;5015445;28;20407;-88
2023/09/29 04:23:42;;;;;;;13.63;11.93;;;;;;;;;;5015570;28;20457;-85
2023/09/29 04:26:14;;;;;;;16.77;11.33;;;;;;;;;;5015520;28;20441;-85
2023/09/29 04:28:40;;;;;;;12.40;11.20;;;;;;;;;;5015423;28;20889;-85
2023/09/29 04:31:06;;;;;;;14.27;10.60;;;;;;;;;;4997738;28;20516;-84
2023/09/29 04:33:32;;;;;;;12.60;11.20;;;;;;;;;;5015359;28;20412;-84
2023/09/29 04:35:58;;;;;;;12.00;10.90;;;;;;;;;;5014970;28;20188;-84
2023/09/29 04:38:24;;;;;;;12.80;11.63;;;;;;;;;;5015253;28;20746;-85
2023/09/29 04:40:50;;;;;;;11.87;10.77;;;;;;;;;;5015260;28;20457;-84
2023/09/29 04:43:16;;;;;;;13.13;11.70;;;;;;;;;;4997571;28;20409;-84
2023/09/29 04:45:43;;;;;;;14.67;13.20;;;;;;;;;;5015042;28;20421;-85
2023/09/29 04:48:09;;;;;;;13.27;11.97;;;;;;;;;;4997469;28;20424;-85
2023/09/29 04:50:35;;;;;;;14.93;12.10;;;;;;;;;;5014611;28;20479;-85
2023/09/29 04:53:01;;;;;;;13.43;11.40;;;;;;;;;;5015011;28;20225;-85
2023/09/29 04:55:28;;;;;;;12.43;11.27;;;;;;;;;;5014898;28;20621;-85
2023/09/29 04:57:54;;;;;;;12.50;11.20;;;;;;;;;;5014907;28;20172;-85
2023/09/29 05:00:21;;;;;;;14.67;13.17;;;;;;;;;;5014869;28;20416;-85
2023/09/29 05:02:46;;;;;;;11.83;10.57;;;;;;;;;;5014769;28;20419;-85
2023/09/29 05:05:12;;;;;;;15.37;12.63;;;;;;;;;;5014409;28;20416;-85
2023/09/29 05:07:39;;;;;;;13.00;11.60;;;;;;;;;;5014761;28;20623;-84
2023/09/29 05:10:05;;;;;;;13.27;11.97;;;;;;;;;;4996814;28;20875;-84
2023/09/29 05:12:31;;;;;;;15.73;12.20;;;;;;;;;;5014702;28;20445;-84
2023/09/29 05:14:57;;;;;;;12.87;11.97;;;;;;;;;;5014400;28;20506;-84
2023/09/29 05:17:23;;;;;;;11.83;10.70;;;;;;;;;;5014553;28;20962;-84
2023/09/29 05:19:49;;;;;;;13.23;12.00;;;;;;;;;;5014084;28;20427;-84
2023/09/29 05:22:15;;;;;;;12.37;11.07;;;;;;;;;;5013960;28;20772;-84
2023/09/29 05:24:41;;;;;;;12.47;11.33;;;;;;;;;;5014491;28;20180;-85
2023/09/29 05:27:07;;;;;;;11.83;10.20;;;;;;;;;;5014387;28;20407;-84
2023/09/29 05:29:34;;;;;;;13.93;12.63;;;;;;;;;;5014196;28;20546;-85
2023/09/29 05:31:59;;;;;;;13.07;11.13;;;;;;;;;;5014294;28;20420;-84
2023/09/29 05:34:25;;;;;;;12.97;11.70;;;;;;;;;;5013975;28;20932;-84
2023/09/29 05:36:51;;;;;;;13.30;11.97;;;;;;;;;;4996573;28;20775;-84
2023/09/29 05:39:18;;;;;;;14.07;11.10;;;;;;;;;;5014121;28;20170;-84
2023/09/29 05:41:44;;;;;;;11.97;10.93;;;;;;;;;;5014272;28;20185;-84
2023/09/29 05:44:10;;;;;;;12.37;10.97;;;;;;;;;;5014069;28;20408;-84
2023/09/29 05:46:36;;;;;;;12.30;11.17;;;;;;;;;;5014022;28;20912;-84
2023/09/29 05:49:02;;;;;;;12.87;10.50;;;;;;;;;;5013574;28;20180;-84
2023/09/29 05:51:28;;;;;;;16.00;11.40;;;;;;;;;;5013883;28;20490;-84
2023/09/29 05:53:54;;;;;;;12.30;11.20;;;;;;;;;;4996367;28;20510;-86
2023/09/29 05:56:20;;;;;;;12.10;10.90;;;;;;;;;;5013862;28;20424;-85
2023/09/29 05:58:46;;;;;;;17.47;11.40;;;;;;;;;;5013752;28;20419;-86
2023/09/29 06:01:16;;;;;;;16.37;10.83;;;;;;;;;;4996030;28;20428;-85
2023/09/29 06:03:42;;;;;;;15.03;11.50;;;;;;;;;;4996069;28;20420;-84
2023/09/29 06:06:11;;;;;;;17.50;11.20;;;;;;;;;;5013368;28;20412;-84
2023/09/29 06:08:38;;;;;;;11.93;10.70;;;;;;;;;;5013682;28;20404;-84
2023/09/29 06:11:04;;;;;;;16.93;11.27;;;;;;;;;;4996028;28;20467;-85
2023/09/29 06:13:30;;;;;;;13.40;10.20;;;;;;;;;;5013576;28;20838;-85
2023/09/29 06:15:56;;;;;;;12.93;9.97;;;;;;;;;;5013397;28;20861;-85
2023/09/29 06:18:22;;;;;;;11.30;10.20;;;;;;;;;;4996044;28;20526;-84
2023/09/29 06:20:48;;;;;;;10.83;9.60;;;;;;;;;;4995609;28;20432;-85
2023/09/29 06:23:15;;;;;;;12.57;11.30;;;;;;;;;;5013454;28;20423;-85
2023/09/29 06:25:40;;;;;;;13.10;10.27;;;;;;;;;;5013420;28;20182;-85
2023/09/29 06:28:06;;;;;;;9.30;8.37;;;;;;;;;;5013329;28;20412;-84
2023/09/29 06:30:32;;;;;;;11.00;9.57;;;;;;;;;;5013236;28;20678;-84
2023/09/29 06:32:58;;;;;;;11.03;8.90;;;;;;;;;;5012283;28;20176;-85
2023/09/29 06:35:24;;;;;;;13.00;10.47;;;;;;;;;;5012829;28;20183;-85
2023/09/29 06:37:51;;;;;;;10.30;9.30;;;;;;;;;;5013213;28;20403;-86
2023/09/29 06:40:17;;;;;;;16.63;9.87;;;;;;;;;;5013299;28;20403;-85
2023/09/29 06:42:43;;;;;;;11.97;8.30;;;;;;;;;;5013208;28;20568;-85
2023/09/29 06:45:09;;;;;;;12.90;9.10;;;;;;;;;;5013209;28;20443;-85
2023/09/29 06:47:35;;;;;;;12.73;9.30;;;;;;;;;;5013220;28;20176;-85
2023/09/29 06:50:01;;;;;;;11.37;10.33;;;;;;;;;;5012728;28;20966;-85
2023/09/29 06:52:27;;;;;;;9.30;8.37;;;;;;;;;;5013084;28;20418;-86
2023/09/29 06:54:53;;;;;;;11.63;10.33;;;;;;;;;;4995518;28;20427;-85
2023/09/29 06:57:20;;;;;;;10.13;9.23;;;;;;;;;;5013479;28;20468;-86
2023/09/29 06:59:46;;;;;;;12.70;10.77;;;;;;;;;;5013297;28;20181;-86
2023/09/29 07:02:12;;;;;;;10.90;9.80;;;;;;;;;;4995650;28;20805;-85
2023/09/29 07:04:38;;;;;;;11.33;10.00;;;;;;;;;;5012875;28;20421;-86
2023/09/29 07:07:04;;;;;;;13.67;11.70;;;;;;;;;;4995574;28;20172;-86
2023/09/29 07:09:30;;;;;;;11.63;10.43;;;;;;;;;;4995588;28;20424;-91
2023/09/29 07:11:56;;;;;;;11.17;9.60;;;;;;;;;;5013843;28;20419;-88
2023/09/29 07:14:22;;;;;;;11.30;10.10;;;;;;;;;;5018702;28;20584;-85
2023/09/29 07:16:52;;;;;;;13.70;10.80;;;;;;;;;;5032049;28;20506;-83
2023/09/29 07:19:18;;;;;;;14.00;12.03;;;;;;;;;;5031410;28;20770;-83
2023/09/29 07:21:44;;;;;;;11.93;10.13;;;;;;;;;;5031506;28;20418;-80
2023/09/29 07:24:10;;;;;;;13.67;10.93;;;;;;;;;;5031082;28;20406;-81
2023/09/29 07:26:36;;;;;;;12.77;11.47;;;;;;;;;;5032416;28;20419;-77
2023/09/29 07:29:04;;;;;;;15.57;11.37;;;;;;;;;;5032457;28;20470;-79
2023/09/29 07:31:34;;;;;;;14.30;11.20;;;;;;;;;;5032267;28;20487;-78
2023/09/29 07:34:01;;;;;;;12.10;10.90;;;;;;;;;;5031774;28;20562;-79
2023/09/29 07:36:30;;;;;;;13.87;10.83;;;;;;;;;;5032236;28;20419;-78
2023/09/29 07:38:56;;;;;;;11.77;10.77;;;;;;;;;;5032125;28;20444;-79
2023/09/29 07:41:22;;;;;;;13.37;10.40;;;;;;;;;;5032175;28;20574;-79
2023/09/29 07:43:48;;;;;;;12.67;11.43;;;;;;;;;;5032276;28;20689;-79
2023/09/29 07:46:14;;;;;;;12.83;11.37;;;;;;;;;;5035450;28;20175;-79
2023/09/29 07:48:39;;;;;;;12.30;11.30;;;;;;;;;;5035292;28;20168;-79
2023/09/29 07:51:08;;;;;;;13.57;11.90;;;;;;;;;;5035888;28;20471;-78
2023/09/29 07:53:34;;;;;;;13.53;11.57;;;;;;;;;;5035816;28;20181;-79
2023/09/29 07:56:00;;;;;;;16.10;11.80;;;;;;;;;;5035826;28;20413;-81
2023/09/29 07:58:26;;;;;;;13.27;11.90;;;;;;;;;;5035865;28;20204;-81
2023/09/29 08:00:52;;;;;;;13.23;11.90;;;;;;;;;;5035700;28;20408;-80
2023/09/29 08:03:17;;;;;;;12.97;11.60;;;;;;;;;;5035690;28;20260;-79
2023/09/29 08:05:43;;;;;;;21.77;12.23;;;;;;;;;;5035334;28;20179;-80
2023/09/29 08:08:09;;;;;;;14.80;11.87;;;;;;;;;;5035644;28;20623;-81
2023/09/29 08:10:38;;;;;;;13.10;11.90;;;;;;;;;;5035510;28;20622;-81
2023/09/29 08:13:04;;;;;;;15.30;12.10;;;;;;;;;;5032116;28;20182;-81
2023/09/29 08:15:30;;;;;;;13.33;11.40;;;;;;;;;;5035376;28;20467;-80
2023/09/29 08:17:56;;;;;;;13.93;12.20;;;;;;;;;;5035520;28;20414;-80
2023/09/29 08:20:22;;;;;;;12.50;11.40;;;;;;;;;;5035070;28;20230;-79
2023/09/29 08:22:48;;;;;;;12.30;11.17;;;;;;;;;;5035389;28;20673;-79
2023/09/29 08:25:14;;;;;;;11.57;10.00;;;;;;;;;;5017710;28;20419;-79
2023/09/29 08:27:40;;;;;;;10.83;9.73;;;;;;;;;;5035122;28;20213;-81
2023/09/29 08:30:06;;;;;;;11.53;10.40;;;;;;;;;;5027237;28;20498;-82
2023/09/29 08:32:33;;;;;;;11.60;10.63;;;;;;;;;;5025767;28;20436;-81
2023/09/29 08:34:58;;;;;;;11.53;10.37;;;;;;;;;;5023652;28;20405;-81
2023/09/29 08:37:24;;;;;;;12.13;10.83;;;;;;;;;;5024754;28;20986;-80
2023/09/29 08:39:50;;;;;;;11.63;10.53;;;;;;;;;;5025460;28;20416;-82
2023/09/29 08:42:31;;;;;;;11.93;10.80;;;;;;;;;;5023512;28;20423;-81
2023/09/29 08:45:03;;;;;;;11.90;10.70;;;;;;;;;;5023612;28;20475;-79
2023/09/29 08:47:30;;;;;;;14.20;10.57;;;;;;;;;;5023957;28;20814;-79
2023/09/29 08:49:59;;;;;;;12.33;9.47;;;;;;;;;;5024920;28;20452;-79
2023/09/29 08:52:28;;;;;;;10.97;9.97;;;;;;;;;;5024564;28;20421;-78
2023/09/29 08:54:55;;;;;;;11.20;9.63;;;;;;;;;;5023329;28;20397;-80
2023/09/29 08:57:21;;;;;;;10.50;9.50;;;;;;;;;;5018859;28;20431;-78
2023/09/29 08:59:49;;;;;;;10.07;9.10;;;;;;;;;;5014829;28;20646;-80
2023/09/29 09:02:15;;;;;;;10.37;8.53;;;;;;;;;;5022796;28;20423;-80
2023/09/29 09:04:41;;;;;;;9.47;8.07;;;;;;;;;;5024983;28;20777;-79
2023/09/29 09:07:07;;;;;;;10.00;7.70;;;;;;;;;;5025242;28;20178;-79
2023/09/29 09:09:35;;;;;;;11.80;7.60;;;;;;;;;;5005955;28;20418;-80
2023/09/29 09:12:02;;;;;;;7.00;6.27;;;;;;;;;;5028727;28;20180;-79
2023/09/29 09:14:38;;;;;;;7.60;5.70;;;;;;;;;;5034156;28;20415;-81
2023/09/29 09:17:04;;;;;;;7.50;6.80;;;;;;;;;;5034418;28;20765;-81
2023/09/29 09:19:30;;;;;;;9.50;6.10;;;;;;;;;;5025214;28;20818;-79
2023/09/29 09:21:56;;;;;;;7.23;5.70;;;;;;;;;;5022891;28;20484;-82
2023/09/29 09:24:23;;;;;;;6.60;5.57;;;;;;;;;;5021946;28;20467;-81
2023/09/29 09:26:50;;;;;;;9.30;6.00;;;;;;;;;;5014701;28;20425;-81
2023/09/29 09:29:17;;;;;;;5.40;4.90;;;;;;;;;;5014340;28;20417;-82
2023/09/29 09:31:46;;;;;;;6.13;5.33;;;;;;;;;;5019009;28;20501;-79
2023/09/29 09:34:15;;;;;;;6.27;5.10;;;;;;;;;;5033623;28;20418;-80
2023/09/29 09:36:45;;;;;;;6.90;5.43;;;;;;;;;;5033867;28;20418;-79
2023/09/29 09:39:11;;;;;;;5.90;5.30;;;;;;;;;;5033895;28;20454;-80
2023/09/29 09:41:38;;;;;;;5.77;5.27;;;;;;;;;;5033890;28;20423;-79
2023/09/29 09:44:04;;;;;;;6.70;5.77;;;;;;;;;;5033755;28;20424;-79
2023/09/29 09:46:33;;;;;;;5.40;4.43;;;;;;;;;;5033712;28;20418;-81
2023/09/29 09:49:08;;;;;;;6.30;4.13;;;;;;;;;;5030244;28;20426;-79
2023/09/29 09:51:35;;;;;;;5.60;4.63;;;;;;;;;;5022995;28;20472;-81
2023/09/29 09:54:08;;;;;;;4.40;3.80;;;;;;;;;;5023541;28;20922;-80
2023/09/29 09:56:45;;;;;;;5.30;3.20;;;;;;;;;;5016077;28;21045;-80
2023/09/29 09:59:14;;;;;;;5.57;3.70;;;;;;;;;;5013866;28;20739;-80
2023/09/29 10:01:40;;;;;;;5.17;4.00;;;;;;;;;;5013671;28;20414;-80
2023/09/29 10:04:07;;;;;;;6.00;4.13;;;;;;;;;;5013369;28;20410;-80
2023/09/29 10:06:34;;;;;;;6.37;4.27;;;;;;;;;;5013696;28;20423;-80
2023/09/29 10:09:00;;;;;;;5.33;4.53;;;;;;;;;;5013517;28;20416;-79
2023/09/29 10:11:26;;;;;;;7.73;4.87;;;;;;;;;;5023770;28;20476;-81
2023/09/29 10:14:00;;;;;;;5.93;4.53;;;;;;;;;;5053202;28;20411;-82
2023/09/29 10:16:26;;;;;;;6.77;5.90;;;;;;;;;;5052918;28;20870;-82
2023/09/29 10:18:56;;;;;;;5.47;4.90;;;;;;;;;;5052723;28;20469;-82
2023/09/29 10:21:26;;;;;;;4.77;4.07;;;;;;;;;;5052987;28;20168;-82
2023/09/29 10:23:52;;;;;;;4.60;3.70;;;;;;;;;;5053032;28;20417;-80
2023/09/29 10:26:21;;;;;;;5.40;4.43;;;;;;;;;;5052975;28;20752;-82
2023/09/29 10:28:47;;;;;;;6.27;5.30;;;;;;;;;;5053030;28;20413;-79
2023/09/29 10:31:17;;;;;;;7.27;4.90;;;;;;;;;;5052792;28;20479;-81
2023/09/29 10:33:53;;;;;;;4.90;4.37;;;;;;;;;;5052471;28;20771;-82
2023/09/29 10:36:23;;;;;;;6.03;4.90;;;;;;;;;;5052969;28;20404;-82
2023/09/29 10:38:49;;;;;;;9.33;6.43;;;;;;;;;;5053000;28;20747;-81
2023/09/29 10:41:15;;;;;;;8.03;5.57;;;;;;;;;;5052870;28;20414;-82
2023/09/29 10:43:48;;;;;;;8.47;6.80;;;;;;;;;;5052906;28;20411;-80
2023/09/29 10:46:16;;;;;;;5.00;4.50;;;;;;;;;;5052692;28;20420;-81
2023/09/29 10:48:46;;;;;;;7.27;4.70;;;;;;;;;;5052397;28;20496;-80
2023/09/29 10:51:21;;;;;;;9.20;4.53;;;;;;;;;;5052629;28;20559;-80
2023/09/29 10:53:46;;;;;;;6.33;4.00;;;;;;;;;;5052712;28;20522;-78
2023/09/29 10:56:18;;;;;;;5.70;4.77;;;;;;;;;;5052729;28;20912;-80
2023/09/29 10:58:45;;;;;;;5.20;4.70;;;;;;;;;;5052768;28;20176;-80
2023/09/29 11:01:11;;;;;;;5.47;3.50;;;;;;;;;;5052695;28;20418;-81
2023/09/29 11:03:37;;;;;;;6.83;4.47;;;;;;;;;;5042264;28;20404;-80
2023/09/29 11:06:08;;;;;;;4.37;3.70;;;;;;;;;;5022308;28;20426;-81
2023/09/29 11:08:50;;;;;;;4.60;4.00;;;;;;;;;;5005620;28;20939;-81
2023/09/29 11:11:17;;;;;;;7.17;3.77;;;;;;;;;;5020366;28;20476;-81
2023/09/29 11:13:43;;;;;;;6.20;3.50;;;;;;;;;;5012919;28;20514;-80
2023/09/29 11:16:19;;;;;;;6.97;3.77;;;;;;;;;;5012726;28;20860;-80
2023/09/29 11:18:45;;;;;;;5.37;3.47;;;;;;;;;;5012502;28;20415;-80
2023/09/29 11:21:12;;;;;;;5.40;3.60;;;;;;;;;;5016219;28;20803;-80
2023/09/29 11:23:45;;;;;;;4.80;3.17;;;;;;;;;;5016527;28;20425;-79
2023/09/29 11:26:11;;;;;;;4.53;3.20;;;;;;;;;;5016628;28;20467;-81
2023/09/29 11:28:41;;;;;;;4.90;3.10;;;;;;;;;;5016606;28;20403;-81
2023/09/29 11:31:11;;;;;;;8.20;3.40;;;;;;;;;;5016443;28;20761;-81
2023/09/29 11:33:37;;;;;;;7.40;3.13;;;;;;;;;;5016167;28;20418;-81
2023/09/29 11:36:17;;;;;;;5.73;3.30;;;;;;;;;;5016447;28;20404;-80
2023/09/29 11:38:43;;;;;;;3.93;2.83;;;;;;;;;;5016364;28;21102;-79
2023/09/29 11:41:12;;;;;;;3.73;2.83;;;;;;;;;;5016129;28;20435;-79
2023/09/29 11:43:39;;;;;;;4.90;2.90;;;;;;;;;;5016278;28;20415;-79
2023/09/29 11:46:06;;;;;;;5.83;2.20;;;;;;;;;;5016189;28;20496;-80
2023/09/29 11:48:32;;;;;;;3.50;2.43;;;;;;;;;;5015792;28;20444;-80
2023/09/29 11:50:58;;;;;;;4.63;2.47;;;;;;;;;;5016034;28;20832;-78
2023/09/29 11:53:24;;;;;;;6.20;3.20;;;;;;;;;;5016024;28;20938;-80
2023/09/29 11:55:50;;;;;;;4.50;2.83;;;;;;;;;;5052122;28;20419;-80
2023/09/29 11:58:16;;;;;;;4.80;2.97;;;;;;;;;;5055638;28;20743;-79
2023/09/29 12:00:42;;;;;;;4.40;2.80;;;;;;;;;;5055760;28;20663;-80
2023/09/29 12:03:09;;;;;;;4.93;3.03;;;;;;;;;;5055526;28;20976;-79
2023/09/29 12:05:39;;;;;;;4.10;2.50;;;;;;;;;;5055623;28;20420;-80
2023/09/29 12:08:06;;;;;;;5.37;3.07;;;;;;;;;;5055501;28;20408;-80
2023/09/29 12:10:32;;;;;;;6.33;2.20;;;;;;;;;;5055390;28;20499;-80
2023/09/29 12:12:59;;;;;;;3.10;1.40;;;;;;;;;;5055485;28;20404;-80
2023/09/29 12:15:34;;;;;;;3.40;2.33;;;;;;;;;;5055232;28;20820;-79
2023/09/29 12:18:00;;;;;;;4.50;2.43;;;;;;;;;;5054961;28;20400;-80
2023/09/29 12:20:27;;;;;;;5.50;1.50;;;;;;;;;;5055278;28;20404;-81
2023/09/29 12:22:55;;;;;;;4.50;2.37;;;;;;;;;;5054911;28;20404;-82
2023/09/29 12:25:21;;;;;;;8.07;2.20;;;;;;;;;;5055147;28;20422;-80
2023/09/29 12:27:48;;;;;;;4.83;2.77;;;;;;;;;;5055045;28;20495;-82
2023/09/29 12:30:14;;;;;;;3.27;2.00;;;;;;;;;;5054881;28;20508;-82
2023/09/29 12:32:40;;;;;;;3.93;2.00;;;;;;;;;;5053834;28;20436;-80
2023/09/29 12:35:08;;;;;;;3.60;2.33;;;;;;;;;;5054638;28;20408;-78
2023/09/29 12:37:34;;;;;;;3.13;2.00;;;;;;;;;;5054818;28;20455;-80
2023/09/29 12:40:00;;;;;;;3.67;2.20;;;;;;;;;;5054893;28;20412;-81
2023/09/29 12:42:25;;;;;;;5.33;2.47;;;;;;;;;;5054912;28;20419;-81
2023/09/29 12:44:52;;;;;;;4.90;1.70;;;;;;;;;;5054932;28;20185;-82
2023/09/29 12:47:18;;;;;;;5.00;2.47;;;;;;;;;;5054874;28;20184;-83
2023/09/29 12:49:44;;;;;;;3.43;1.70;;;;;;;;;;5054241;28;20408;-80
2023/09/29 12:52:10;;;;;;;2.60;2.00;;;;;;;;;;5055488;28;20670;-86
2023/09/29 12:54:39;;;;;;;3.73;1.70;;;;;;;;;;5054587;28;20174;-82
2023/09/29 12:57:06;;;;;;;3.23;2.00;;;;;;;;;;5054799;28;20408;-88
2023/09/29 12:59:36;;;;;;;4.13;2.97;;;;;;;;;;5036719;28;20787;-86
2023/09/29 13:02:02;;;;;;;4.63;3.10;;;;;;;;;;5054515;28;20919;-84
2023/09/29 13:04:29;;;;;;;4.07;2.27;;;;;;;;;;5054133;28;20412;-85
2023/09/29 13:06:58;;;;;;;4.37;2.10;;;;;;;;;;5054392;28;20436;-81
2023/09/29 13:09:24;;;;;;;3.40;1.87;;;;;;;;;;5054440;28;20412;-87
2023/09/29 13:11:50;;;;;;;3.47;2.00;;;;;;;;;;5034075;28;20532;-80
2023/09/29 13:14:16;;;;;;;2.93;1.30;;;;;;;;;;5030584;28;20194;-85
2023/09/29 13:16:42;;;;;;;2.30;1.23;;;;;;;;;;5026112;28;20434;-81
2023/09/29 13:19:08;;;;;;;2.50;1.50;;;;;;;;;;5022528;28;20613;-79
2023/09/29 13:21:34;;;;;;;3.33;1.93;;;;;;;;;;5024742;28;20412;-82
2023/09/29 13:24:00;;;;;;;2.90;1.90;;;;;;;;;;5023527;28;20182;-87
2023/09/29 13:26:27;;;;;;;4.10;1.90;;;;;;;;;;5098076;22;20251;-83
2023/09/29 13:28:52;;;;;;;2.30;2.10;;;;;;;;;;5064384;28;20419;-84
2023/09/29 13:31:18;;;;;;;2.67;1.83;;;;;;;;;;5062827;28;20474;-82
2023/09/29 13:33:44;;;;;;;3.80;1.70;;;;;;;;;;5062577;28;20590;-81
2023/09/29 13:36:10;;;;;;;4.43;1.67;;;;;;;;;;5064434;28;20656;-80
2023/09/29 13:38:36;;;;;;;3.60;1.27;;;;;;;;;;5063966;28;20180;-85
2023/09/29 13:41:02;;;;;;;3.63;1.90;;;;;;;;;;5063337;28;20176;-81
2023/09/29 13:43:28;;;;;;;3.20;1.53;;;;;;;;;;5061176;28;20426;-79
2023/09/29 13:45:55;;;;;;;3.00;1.70;;;;;;;;;;5069105;28;20591;-83
2023/09/29 13:48:22;;;;;;;3.17;1.90;;;;;;;;;;5066980;28;20423;-77
2023/09/29 13:50:51;;;;;;;3.33;1.20;;;;;;;;;;5080681;28;21044;-79
2023/09/29 13:53:18;;;;;;;2.90;1.60;;;;;;;;;;5069244;28;20903;-83
2023/09/29 13:55:44;;;;;;;3.50;1.70;;;;;;;;;;5077091;28;20461;-78
2023/09/29 13:58:10;;;;;;;5.30;1.47;;;;;;;;;;5073324;28;20435;-81
2023/09/29 14:00:36;;;;;;;3.40;1.20;;;;;;;;;;5073204;28;20169;-83
2023/09/29 14:03:03;;;;;;;2.30;1.47;;;;;;;;;;5072804;28;20514;-84
2023/09/29 14:05:29;;;;;;;3.50;1.10;;;;;;;;;;5073138;28;20806;-81
2023/09/29 14:07:56;;;;;;;3.00;1.40;;;;;;;;;;5073205;28;20415;-79
2023/09/29 14:10:22;;;;;;;3.17;1.20;;;;;;;;;;5073001;28;20295;-79
2023/09/29 14:12:48;;;;;;;3.40;1.47;;;;;;;;;;5073126;28;20430;-80
2023/09/29 14:15:14;;;;;;;2.90;1.63;;;;;;;;;;5073051;28;20407;-80
2023/09/29 14:17:40;;;;;;;2.87;1.40;;;;;;;;;;5072636;28;20480;-83
2023/09/29 14:20:08;;;;;;;2.20;1.37;;;;;;;;;;5072911;28;20412;-81
2023/09/29 14:22:34;;;;;;;3.63;1.80;;;;;;;;;;5073053;28;20407;-81
2023/09/29 14:25:00;;;;;;;4.67;2.17;;;;;;;;;;5072763;28;20441;-84
2023/09/29 14:27:25;;;;;;;2.40;1.80;;;;;;;;;;5072682;28;20221;-79
2023/09/29 14:29:51;;;;;;;4.53;1.97;;;;;;;;;;5072834;28;20477;-80
2023/09/29 14:32:17;;;;;;;3.40;1.60;;;;;;;;;;5072912;28;20446;-80